Stations météo

réclame
Mon MeteoGroup
Sant Jaume, Espagne (8240): Température de l'air & dewpoint: 19.11.2017 02:00:00 - 25.11.2017 02:00:00 (CET)Sant Jaume, Espagne (8240): Vitesse du vent & gusts: 19.11.2017 02:00:00 - 25.11.2017 02:00:00 (CET)Sant Jaume, Espagne (8240): Direction du vent: 19.11.2017 02:00:00 - 25.11.2017 02:00:00 (CET)Sant Jaume, Espagne (8240): Quantités de précipitations: 19.11.2017 02:00:00 - 25.11.2017 02:00:00 (CET)
Date & Time tt [°C] td [°C] ff [km/h] ff [knt] fx [km/h] fx [knt] dd rr [mm]
25.11.2017 02:00:00 12,4 8,1 6 4 10 5 W 0,0
25.11.2017 01:00:00 12,2 8,5 4 2 11 6 NW -
25.11.2017 00:00:00 11,8 9,7 5 3 14 8 W 0,0
24.11.2017 23:00:00 12,1 10,9 3 2 6 4 NNW 0,0
24.11.2017 22:00:00 12,8 11,7 2 1 6 4 W 0,0
24.11.2017 21:00:00 13,7 12,7 4 2 8 4 NNW 0,0
24.11.2017 20:00:00 14,6 13,4 2 1 7 4 NNW 0,0
24.11.2017 19:00:00 15,5 14,0 5 3 10 5 S -
24.11.2017 18:00:00 17,1 14,9 4 2 7 4 SE 0,0
24.11.2017 17:00:00 18,3 15,2 1 1 7 4 SSE 0,0
24.11.2017 16:00:00 18,6 15,6 6 3 12 7 SSE 0,0
24.11.2017 15:00:00 18,7 16,0 10 6 14 8 S 0,0
24.11.2017 14:00:00 19,4 16,2 9 5 13 7 S 0,0
24.11.2017 13:00:00 19,4 15,3 5 3 10 5 SE -
24.11.2017 12:00:00 17,1 11,8 5 3 10 5 SW 0,0
24.11.2017 11:00:00 14,6 11,6 6 3 10 5 SW 0,0
24.11.2017 10:00:00 13,6 12,1 3 2 11 6 WSW 0,0
24.11.2017 09:00:00 12,3 10,5 6 3 12 6 WNW 0,0
24.11.2017 08:00:00 12,0 9,9 9 5 22 12 SW 0,0
24.11.2017 07:00:00 11,5 9,8 4 2 22 12 N -
24.11.2017 06:00:00 10,3 9,7 11 6 24 13 W 0,0
24.11.2017 05:00:00 10,6 10,2 5 3 10 5 W 0,0
24.11.2017 04:00:00 10,6 10,2 4 2 13 7 WNW 0,0
24.11.2017 03:00:00 9,9 9,4 0 0 5 3 N 0,0
24.11.2017 02:00:00 10,5 10,0 3 2 14 7 WNW 0,0
24.11.2017 01:00:00 11,4 11,0 3 2 5 3 W -
24.11.2017 00:00:00 11,4 11,0 4 2 11 6 NNW 0,0
23.11.2017 23:00:00 11,8 11,3 3 2 6 3 NW 0,0
23.11.2017 22:00:00 12,5 12,0 4 2 6 3 N 0,0
23.11.2017 21:00:00 13,6 13,0 3 2 6 4 N 0,0
23.11.2017 20:00:00 13,8 13,2 3 2 7 4 NNW 0,0
23.11.2017 19:00:00 14,8 13,7 2 1 9 5 SSW -
23.11.2017 18:00:00 15,3 14,0 5 3 9 5 S 0,0
23.11.2017 17:00:00 16,4 14,4 8 5 15 8 S 0,0
23.11.2017 16:00:00 17,2 14,3 11 6 14 8 S 0,0
23.11.2017 15:00:00 17,8 13,8 5 3 10 6 S 0,0
23.11.2017 14:00:00 18,0 13,9 7 4 11 6 S 0,0
23.11.2017 13:00:00 17,9 14,0 4 2 10 5 SE -
23.11.2017 12:00:00 15,8 13,5 3 1 7 4 WNW 0,0
23.11.2017 11:00:00 13,2 11,9 1 1 10 6 NW 0,0
23.11.2017 10:00:00 12,4 11,4 5 3 13 7 NW 0,0
23.11.2017 09:00:00 10,3 9,8 4 2 9 5 W 0,0
23.11.2017 08:00:00 9,4 8,9 4 2 8 5 WNW 0,0
23.11.2017 07:00:00 9,7 9,3 3 2 8 4 NW -
23.11.2017 06:00:00 9,8 9,3 3 2 8 4 WNW 0,0
23.11.2017 05:00:00 10,5 10,0 2 1 7 4 WNW 0,0
23.11.2017 04:00:00 10,5 10,0 3 1 11 6 WNW 0,0
23.11.2017 03:00:00 10,1 9,7 3 1 7 4 WNW 0,0
23.11.2017 02:00:00 10,6 10,2 3 2 6 3 NW 0,0
23.11.2017 01:00:00 11,0 10,5 3 1 7 4 WNW -
23.11.2017 00:00:00 12,2 11,8 3 1 9 5 NW 0,0
22.11.2017 23:00:00 12,6 12,1 3 2 7 4 NE 0,0
22.11.2017 22:00:00 12,1 11,7 1 1 6 3 N 0,0
22.11.2017 21:00:00 12,2 11,8 3 1 6 3 NW 0,0
22.11.2017 20:00:00 12,6 12,0 4 2 5 3 NNW 0,0
22.11.2017 19:00:00 13,2 11,9 0 0 7 4 N -
22.11.2017 18:00:00 14,4 12,6 5 3 8 4 SSE 0,0
22.11.2017 17:00:00 15,8 13,1 5 3 13 7 S 0,0
22.11.2017 16:00:00 16,5 13,1 10 5 15 8 SSE 0,0
22.11.2017 15:00:00 16,7 12,2 9 5 12 7 SSE 0,0
22.11.2017 14:00:00 17,8 11,6 0 0 7 4 S 0,0
22.11.2017 13:00:00 16,5 11,4 3 2 10 5 S -
22.11.2017 12:00:00 14,6 9,2 3 1 7 4 WNW 0,0
22.11.2017 11:00:00 12,4 8,1 2 1 10 5 W 0,0
22.11.2017 10:00:00 10,0 6,7 1 0 9 5 WNW 0,0
22.11.2017 09:00:00 7,6 5,8 4 2 10 5 NW 0,0
22.11.2017 08:00:00 6,1 4,1 4 2 10 5 WNW 0,0
22.11.2017 07:00:00 6,6 4,6 5 3 9 5 W -
22.11.2017 06:00:00 7,4 5,3 4 2 9 5 W 0,0
22.11.2017 05:00:00 7,4 5,1 4 2 8 4 WNW 0,0
22.11.2017 04:00:00 7,5 5,1 4 2 8 5 WNW 0,0
22.11.2017 03:00:00 7,4 5,6 3 2 6 4 WNW 0,0
22.11.2017 02:00:00 7,6 5,5 4 2 6 3 W 0,0
22.11.2017 01:00:00 8,2 5,9 2 1 7 4 W -
22.11.2017 00:00:00 9,1 7,3 4 2 6 3 W 0,0
21.11.2017 23:00:00 10,2 8,9 3 2 6 4 W 0,0
21.11.2017 22:00:00 10,6 9,3 3 2 6 3 NW 0,0
21.11.2017 21:00:00 11,9 11,0 1 1 8 4 W 0,0
21.11.2017 20:00:00 13,6 12,5 5 3 10 6 WSW 0,0
21.11.2017 19:00:00 13,0 11,2 7 4 11 6 SW -
21.11.2017 18:00:00 13,9 10,6 7 4 8 4 SSW 0,0
21.11.2017 17:00:00 16,4 10,0 3 2 7 4 SSW 0,0
21.11.2017 16:00:00 17,3 8,9 5 3 11 6 SSW 0,0
21.11.2017 15:00:00 17,5 8,7 9 5 12 6 S 0,0
21.11.2017 14:00:00 18,1 5,0 0 0 9 5 N 0,0
21.11.2017 13:00:00 16,8 5,5 3 1 10 5 N -
21.11.2017 12:00:00 15,5 6,5 5 3 10 6 NW 0,0
21.11.2017 11:00:00 13,3 5,9 3 2 9 5 NNW 0,0
21.11.2017 10:00:00 9,8 6,1 4 2 7 4 W 0,0
21.11.2017 09:00:00 8,0 6,1 4 2 7 4 W 0,0
21.11.2017 08:00:00 6,9 5,6 1 1 7 4 W 0,0
21.11.2017 07:00:00 7,2 5,8 3 2 8 4 W -
21.11.2017 06:00:00 7,4 6,1 4 2 7 4 W 0,0
21.11.2017 05:00:00 7,6 6,4 2 1 9 5 W 0,0
21.11.2017 04:00:00 7,6 6,5 5 3 9 5 WNW 0,0
21.11.2017 03:00:00 8,1 7,6 4 2 7 4 W 0,0
21.11.2017 02:00:00 9,3 8,8 2 1 6 3 WNW 0,0
21.11.2017 01:00:00 10,3 9,8 4 2 7 4 NW -
21.11.2017 00:00:00 10,1 9,4 4 2 8 4 NW 0,0
20.11.2017 23:00:00 11,0 10,4 2 1 9 5 NW 0,0
20.11.2017 22:00:00 11,3 10,5 4 2 10 5 WNW 0,0
20.11.2017 21:00:00 12,4 11,8 5 3 11 6 W 0,0
20.11.2017 20:00:00 13,1 12,1 8 4 9 5 SW 0,0
20.11.2017 19:00:00 13,3 11,9 5 3 6 3 SSW -
20.11.2017 18:00:00 14,1 12,0 4 2 5 3 S 0,0
20.11.2017 17:00:00 15,8 11,8 4 2 8 4 S 0,0
20.11.2017 16:00:00 16,7 10,3 5 3 12 6 S 0,0
20.11.2017 15:00:00 16,9 9,6 5 3 9 5 SSE 0,0
20.11.2017 14:00:00 17,0 10,2 4 2 10 5 S 0,0
20.11.2017 13:00:00 17,1 9,0 3 1 7 4 S -
20.11.2017 12:00:00 15,3 7,1 1 0 8 5 NW 0,0
20.11.2017 11:00:00 13,5 8,4 3 2 10 5 NW 0,0
20.11.2017 10:00:00 10,7 6,7 5 3 10 5 W 0,0
20.11.2017 09:00:00 7,7 5,6 5 3 10 5 W 0,0
20.11.2017 08:00:00 6,3 5,0 5 3 13 7 W 0,0
20.11.2017 07:00:00 6,5 4,6 4 2 7 4 WNW -
20.11.2017 06:00:00 7,2 5,1 3 2 6 3 WNW 0,0
20.11.2017 05:00:00 6,7 4,5 4 2 9 5 WNW 0,0
20.11.2017 04:00:00 7,0 5,1 4 2 10 5 NW 0,0
20.11.2017 03:00:00 8,0 6,7 4 2 8 4 W 0,0
20.11.2017 02:00:00 8,1 6,8 4 2 11 6 NW 0,0
20.11.2017 01:00:00 8,5 7,1 5 3 11 6 WNW -
20.11.2017 00:00:00 9,2 7,0 4 2 8 4 W 0,0
19.11.2017 23:00:00 9,5 8,0 4 2 6 3 NNW 0,0
19.11.2017 22:00:00 10,5 8,7 2 1 6 3 NW 0,0
19.11.2017 21:00:00 11,0 9,0 5 3 7 4 N 0,0
19.11.2017 20:00:00 11,4 8,9 3 2 8 4 NW 0,0
19.11.2017 19:00:00 12,8 9,0 5 3 10 6 SW -
19.11.2017 18:00:00 13,3 8,9 8 4 9 5 SSW 0,0
19.11.2017 17:00:00 16,1 6,5 2 1 14 7 NW 0,0
19.11.2017 16:00:00 17,1 5,1 7 4 17 9 NNW 0,0
19.11.2017 15:00:00 17,0 5,6 10 6 19 11 NNW 0,0
19.11.2017 14:00:00 16,7 6,2 10 5 21 11 NNW 0,0
19.11.2017 13:00:00 16,1 6,8 10 5 18 10 NNW -
19.11.2017 12:00:00 15,1 7,1 8 4 14 8 NNW 0,0
19.11.2017 11:00:00 14,0 7,6 8 5 21 12 NW 0,0
19.11.2017 10:00:00 12,0 6,7 13 7 22 12 NNW 0,0
19.11.2017 09:00:00 10,5 6,2 13 7 21 12 NNW 0,0
19.11.2017 08:00:00 8,9 5,8 6 3 10 5 NNW 0,0
19.11.2017 07:00:00 8,9 6,2 5 3 13 7 NNW -
19.11.2017 06:00:00 9,4 6,1 5 3 21 11 NW 0,0
19.11.2017 05:00:00 10,4 6,5 10 5 21 12 NNW 0,0
19.11.2017 04:00:00 10,1 7,1 12 7 20 11 NNW 0,0
19.11.2017 03:00:00 8,9 7,0 6 3 13 7 NNW 0,0
19.11.2017 02:00:00 9,1 7,3 4 2 6 3 WNW 0,0

tt = Température de l'air
td = dewpoint
ff = Vitesse du vent
fx = gusts
dd = Direction du vent
rr = Quantités de précipitations

stations d'obs. à proximité